Time;durP1;ratioP1;P1;durP2;ratioP2;P2;SDS_P1;SDS_P2;PMS_P1;PMS_P2;Temp;Humidity;BMP_temperature;BMP_pressure;BME280_temperature;BME280_humidity;BME280_pressure;Samples;Min_cycle;Max_cycle;Signal;HPM_P1;HPM_P2
2023/02/15 00:03:38;;;;;;;24.70;14.88;;;;;;;2.93;68.85;101798.28;10153633;29;20119;-75
2023/02/15 00:08:41;;;;;;;25.95;15.13;;;;;;;2.89;68.78;101802.81;10156124;29;20119;-76
2023/02/15 00:13:45;;;;;;;26.50;14.10;;;;;;;2.87;68.81;101799.34;10158856;29;20099;-75
2023/02/15 00:18:48;;;;;;;25.13;13.63;;;;;;;2.94;68.41;101797.41;10146471;29;20044;-76
2023/02/15 00:23:51;;;;;;;27.33;14.27;;;;;;;3.00;68.46;101797.25;10151876;29;20041;-76
2023/02/15 00:28:56;;;;;;;27.00;14.75;;;;;;;2.98;67.98;101797.25;10173433;29;20148;-77
2023/02/15 00:34:02;;;;;;;23.38;13.85;;;;;;;2.94;68.12;101800.94;10164040;29;20060;-75
2023/02/15 00:39:05;;;;;;;27.95;14.65;;;;;;;2.87;68.16;101786.06;10152555;29;20190;-76
2023/02/15 00:44:10;;;;;;;28.27;15.77;;;;;;;2.84;68.17;101783.50;10169503;29;20056;-76
2023/02/15 00:49:12;;;;;;;25.23;14.43;;;;;;;2.71;68.31;101780.28;10159041;29;20139;-75
2023/02/15 00:54:15;;;;;;;28.35;15.45;;;;;;;2.44;69.09;101781.84;10160780;29;20052;-76
2023/02/15 00:59:19;;;;;;;26.13;14.40;;;;;;;2.51;69.22;101774.59;10157676;29;20031;-76
2023/02/15 01:04:23;;;;;;;27.88;14.57;;;;;;;2.54;68.93;101775.41;10164959;29;20392;-75
2023/02/15 01:09:26;;;;;;;27.02;14.90;;;;;;;2.39;69.10;101779.31;10141366;29;20120;-77
2023/02/15 01:14:30;;;;;;;24.45;13.32;;;;;;;2.50;68.87;101775.50;10160662;29;20052;-77
2023/02/15 01:19:34;;;;;;;30.73;16.73;;;;;;;2.50;68.72;101773.72;10176108;29;20495;-76
2023/02/15 01:24:37;;;;;;;27.88;15.05;;;;;;;2.47;68.65;101765.84;10159555;29;20044;-76
2023/02/15 01:29:41;;;;;;;29.58;14.30;;;;;;;2.32;68.92;101758.25;10160910;29;20041;-75
2023/02/15 01:34:44;;;;;;;29.90;15.77;;;;;;;2.10;69.48;101761.44;10148332;29;20064;-76
2023/02/15 01:39:48;;;;;;;29.10;15.88;;;;;;;2.07;69.62;101756.22;10162796;29;20071;-76
2023/02/15 01:44:57;;;;;;;30.67;15.88;;;;;;;2.11;69.64;101749.03;10163936;29;20084;-76
2023/02/15 01:50:07;;;;;;;30.23;15.50;;;;;;;1.99;69.86;101749.34;10153873;29;20051;-75
2023/02/15 01:55:12;;;;;;;33.38;15.55;;;;;;;2.03;69.76;101751.00;10171883;29;20082;-76
2023/02/15 02:00:18;;;;;;;27.98;14.93;;;;;;;1.93;70.03;101742.41;10199211;29;20126;-76
2023/02/15 02:05:22;;;;;;;31.35;16.13;;;;;;;1.87;69.91;101729.31;10191710;29;20508;-76
2023/02/15 02:10:26;;;;;;;28.77;15.50;;;;;;;1.68;70.33;101737.69;10185578;29;20571;-77
2023/02/15 02:15:41;;;;;;;30.42;15.45;;;;;;;1.69;70.52;101739.41;10176434;29;20090;-74
2023/02/15 02:21:16;;;;;;;30.52;16.80;;;;;;;1.83;70.39;101731.13;10173629;29;20563;-75
2023/02/15 02:26:48;;;;;;;34.88;17.17;;;;;;;1.80;70.37;101733.88;10191855;29;20043;-75
2023/02/15 02:32:15;;;;;;;30.95;16.95;;;;;;;1.81;70.19;101722.38;10183661;29;20083;-77
2023/02/15 02:37:29;;;;;;;33.00;17.00;;;;;;;1.71;70.16;101724.34;10193096;28;20048;-76
2023/02/15 02:42:39;;;;;;;34.60;16.45;;;;;;;1.68;70.28;101712.97;10204820;29;20095;-75
2023/02/15 02:47:47;;;;;;;36.47;17.58;;;;;;;1.60;70.36;101710.47;10185697;29;20509;-76
2023/02/15 02:52:52;;;;;;;35.63;17.48;;;;;;;1.48;70.35;101708.09;10197536;29;20042;-75
2023/02/15 02:57:58;;;;;;;37.53;18.05;;;;;;;1.44;70.57;101709.94;10180407;29;20127;-76
2023/02/15 03:03:05;;;;;;;33.17;16.83;;;;;;;1.53;70.58;101700.91;10165481;29;20091;-75
2023/02/15 03:08:10;;;;;;;33.40;17.00;;;;;;;1.45;70.53;101695.81;10167946;29;20047;-75
2023/02/15 03:13:13;;;;;;;34.55;17.10;;;;;;;1.40;70.60;101700.34;10152893;29;20563;-76
2023/02/15 03:18:19;;;;;;;36.72;18.60;;;;;;;1.19;71.21;101688.44;10152821;29;20048;-75
2023/02/15 03:23:26;;;;;;;35.78;17.65;;;;;;;1.05;71.85;101693.16;10149649;29;20052;-75
2023/02/15 03:28:36;;;;;;;41.50;20.33;;;;;;;0.91;72.27;101693.44;10138242;29;20512;-76
2023/02/15 03:33:43;;;;;;;39.22;18.95;;;;;;;0.91;72.32;101690.78;10136928;29;20052;-75
2023/02/15 03:38:54;;;;;;;37.70;19.02;;;;;;;0.95;72.47;101686.28;10137916;29;20155;-76
2023/02/15 03:44:01;;;;;;;38.70;18.42;;;;;;;0.88;72.07;101680.25;10152397;29;20472;-75
2023/02/15 03:49:08;;;;;;;38.47;18.65;;;;;;;0.89;72.17;101683.78;10136838;29;20120;-76
2023/02/15 03:54:38;;;;;;;38.92;19.05;;;;;;;0.68;72.71;101687.69;10146477;29;20044;-75
2023/02/15 04:04:58;;;;;;;40.88;20.77;;;;;;;0.41;74.40;101681.16;10171089;29;20135;-76
2023/02/15 04:26:06;;;;;;;39.40;19.60;;;;;;;0.12;75.15;101661.41;10172744;23;20044;-77
2023/02/15 04:31:09;;;;;;;37.40;17.77;;;;;;;0.12;75.47;101659.63;10162634;29;20567;-77
2023/02/15 04:36:12;;;;;;;40.85;20.80;;;;;;;-0.00;76.08;101669.53;10162646;29;20046;-78
2023/02/15 04:41:16;;;;;;;36.42;18.63;;;;;;;0.09;75.89;101670.25;10173540;29;20032;-78
2023/02/15 04:46:19;;;;;;;38.42;18.73;;;;;;;0.32;75.73;101656.63;10160870;29;20044;-76
2023/02/15 04:51:23;;;;;;;40.08;19.13;;;;;;;0.35;75.29;101659.22;10158017;29;20044;-77
2023/02/15 04:56:27;;;;;;;37.00;18.23;;;;;;;0.23;75.30;101640.06;10160078;29;20127;-77
2023/02/15 05:01:30;;;;;;;43.05;18.90;;;;;;;-0.03;76.49;101640.50;10162970;29;20040;-77
2023/02/15 05:06:33;;;;;;;44.58;18.55;;;;;;;0.16;76.71;101637.56;10169228;29;20044;-76
2023/02/15 05:11:37;;;;;;;48.25;21.33;;;;;;;0.01;76.82;101624.59;10160369;29;20041;-77
2023/02/15 05:16:40;;;;;;;45.47;19.20;;;;;;;0.15;76.91;101624.34;10159105;29;20072;-75
2023/02/15 05:21:43;;;;;;;38.30;16.02;;;;;;;0.25;76.30;101619.75;10162763;29;20144;-77
2023/02/15 05:32:07;;;;;;;55.73;20.03;;;;;;;0.33;76.05;101638.97;10168921;29;20068;-76
2023/02/15 05:37:10;;;;;;;44.20;18.17;;;;;;;0.43;75.61;101647.63;10159449;29;20054;-78
2023/02/15 05:42:15;;;;;;;88.20;23.00;;;;;;;0.10;76.73;101642.06;10156298;29;20090;-77
2023/02/15 05:47:17;;;;;;;42.17;18.75;;;;;;;0.07;76.72;101632.41;10159269;29;20131;-77
2023/02/15 05:52:20;;;;;;;54.45;20.25;;;;;;;-0.08;77.08;101622.13;10153084;29;20048;-77
2023/02/15 05:57:24;;;;;;;42.47;17.15;;;;;;;0.04;76.98;101623.66;10155690;29;20036;-77
2023/02/15 06:02:27;;;;;;;48.38;20.60;;;;;;;0.23;76.71;101632.16;10159279;29;20571;-78
2023/02/15 06:07:30;;;;;;;47.45;20.45;;;;;;;0.24;76.15;101632.09;10163787;29;20045;-77
2023/02/15 06:12:34;;;;;;;38.58;17.92;;;;;;;0.19;76.34;101630.44;10168294;29;20459;-78
2023/02/15 06:17:37;;;;;;;44.85;19.92;;;;;;;-0.11;76.90;101614.22;10158056;29;20123;-78
2023/02/15 06:22:40;;;;;;;37.28;18.05;;;;;;;-0.01;77.23;101621.09;10165344;29;20499;-78
2023/02/15 06:27:44;;;;;;;38.40;17.75;;;;;;;0.11;76.70;101628.81;10165838;29;20119;-77
2023/02/15 06:32:47;;;;;;;44.88;18.52;;;;;;;0.20;77.08;101641.00;10160509;29;20514;-77
2023/02/15 06:37:50;;;;;;;40.63;18.23;;;;;;;0.23;76.44;101634.78;10157996;29;20092;-78
2023/02/15 06:42:54;;;;;;;38.83;18.75;;;;;;;0.25;76.42;101632.97;10144225;29;20052;-77
2023/02/15 06:47:57;;;;;;;39.83;18.98;;;;;;;0.09;76.49;101633.25;10158588;29;20103;-77
2023/02/15 06:53:00;;;;;;;39.80;18.25;;;;;;;0.02;76.70;101628.97;10166025;29;20110;-77
2023/02/15 06:58:04;;;;;;;42.33;18.58;;;;;;;0.22;76.47;101619.81;10173232;29;20056;-78
2023/02/15 07:03:07;;;;;;;38.47;17.67;;;;;;;0.37;76.19;101625.69;10160496;29;20052;-78
2023/02/15 07:08:09;;;;;;;38.10;19.25;;;;;;;0.46;75.87;101629.06;10152531;29;20076;-77
2023/02/15 07:13:14;;;;;;;35.97;18.23;;;;;;;0.36;75.67;101618.69;10161188;29;20044;-76
2023/02/15 07:18:16;;;;;;;43.72;19.05;;;;;;;0.43;75.55;101619.41;10184556;29;20059;-78
2023/02/15 07:23:19;;;;;;;43.38;20.42;;;;;;;0.36;75.59;101617.81;10173230;29;20036;-78
2023/02/15 07:28:23;;;;;;;39.85;19.40;;;;;;;0.50;75.82;101625.47;10161783;29;20044;-78
2023/02/15 07:33:27;;;;;;;64.18;20.73;;;;;;;0.82;77.44;101624.81;10168105;29;20055;-77
2023/02/15 07:38:32;;;;;;;52.85;23.83;;;;;;;1.67;76.28;101615.84;10172551;29;20464;-78
2023/02/15 07:43:39;;;;;;;25.83;15.10;;;;;;;1.45;72.82;101607.53;10155969;29;20037;-77
2023/02/15 07:48:43;;;;;;;28.63;15.10;;;;;;;1.09;72.89;101612.75;10159084;29;20291;-77
2023/02/15 07:53:46;;;;;;;33.60;17.20;;;;;;;0.98;73.51;101602.41;10163089;29;20472;-77
2023/02/15 07:58:55;;;;;;;32.38;16.20;;;;;;;1.18;73.46;101599.34;10163011;29;20074;-77
2023/02/15 08:03:58;;;;;;;34.97;16.77;;;;;;;1.21;73.06;101586.03;10163122;29;20040;-76
2023/02/15 08:09:03;;;;;;;32.38;15.27;;;;;;;1.16;73.32;101587.03;10184903;29;20131;-76
2023/02/15 08:14:09;;;;;;;34.92;17.20;;;;;;;1.24;73.23;101590.38;10147550;29;20048;-77
2023/02/15 08:19:14;;;;;;;31.38;15.38;;;;;;;1.46;72.73;101588.09;10154455;29;20068;-79
2023/02/15 08:24:20;;;;;;;29.15;14.77;;;;;;;1.36;72.15;101578.63;10152607;29;20826;-77
2023/02/15 08:29:26;;;;;;;31.33;15.20;;;;;;;1.64;73.04;101568.22;10144724;29;20128;-77
2023/02/15 08:34:31;;;;;;;25.95;14.00;;;;;;;2.05;70.79;101556.56;10144301;29;20052;-76
2023/02/15 08:39:34;;;;;;;25.38;13.98;;;;;;;2.49;69.45;101564.19;10158599;29;20052;-78
2023/02/15 08:44:38;;;;;;;29.13;14.10;;;;;;;3.35;67.56;101548.38;10159465;29;20048;-77
2023/02/15 08:49:41;;;;;;;26.92;14.02;;;;;;;3.92;64.87;101548.19;10154646;29;20064;-77
2023/02/15 08:54:44;;;;;;;26.58;13.77;;;;;;;4.30;63.33;101547.72;10154103;29;21289;-79
2023/02/15 08:59:50;;;;;;;23.58;13.38;;;;;;;4.06;63.50;101544.16;10154760;29;20141;-78
2023/02/15 09:04:53;;;;;;;22.25;13.63;;;;;;;4.53;62.04;101541.59;10121556;29;20649;-78
2023/02/15 09:09:56;;;;;;;21.88;12.40;;;;;;;4.52;62.15;101539.81;10124497;29;20048;-79
2023/02/15 09:15:00;;;;;;;22.20;12.15;;;;;;;5.47;59.47;101537.00;10113575;29;20160;-79
2023/02/15 09:20:03;;;;;;;23.15;12.93;;;;;;;5.48;58.65;101544.03;10108352;29;20078;-79
2023/02/15 09:25:07;;;;;;;19.45;12.23;;;;;;;5.80;57.93;101538.31;10124070;29;20060;-79
2023/02/15 09:30:12;;;;;;;23.85;12.63;;;;;;;5.90;57.67;101529.84;10157915;29;20127;-79
2023/02/15 09:35:15;;;;;;;20.65;11.90;;;;;;;6.00;57.56;101538.31;10156363;29;20051;-78
2023/02/15 09:40:19;;;;;;;22.33;12.77;;;;;;;6.55;57.11;101526.97;10149256;29;20052;-79
2023/02/15 09:45:32;;;;;;;19.50;11.73;;;;;;;6.26;56.85;101526.50;10123879;29;20053;-79
2023/02/15 09:50:46;;;;;;;18.42;11.60;;;;;;;6.48;56.92;101525.53;10125488;29;20483;-78
2023/02/15 09:55:54;;;;;;;18.42;11.63;;;;;;;6.86;56.06;101513.06;10122858;29;20048;-79
2023/02/15 10:01:09;;;;;;;23.17;12.45;;;;;;;6.62;56.75;101505.25;10130492;29;20127;-79
2023/02/15 10:06:24;;;;;;;18.75;11.15;;;;;;;6.78;55.88;101502.72;10135423;29;20056;-79
2023/02/15 10:11:40;;;;;;;22.77;11.85;;;;;;;6.92;56.16;101519.94;10121399;29;20063;-79
2023/02/15 10:16:55;;;;;;;18.98;10.88;;;;;;;7.44;54.61;101507.56;10105085;29;20244;-78
2023/02/15 10:22:08;;;;;;;20.50;11.68;;;;;;;7.37;54.34;101511.47;10126003;29;20063;-78
2023/02/15 10:27:14;;;;;;;20.67;11.93;;;;;;;8.36;52.54;101509.94;10120150;29;20495;-79
2023/02/15 10:32:24;;;;;;;21.05;11.90;;;;;;;8.94;51.34;101509.47;10128148;29;20056;-78
2023/02/15 10:37:45;;;;;;;21.38;12.35;;;;;;;9.01;50.61;101504.59;10120689;29;20613;-79
2023/02/15 10:43:04;;;;;;;17.48;11.50;;;;;;;9.09;50.59;101501.50;10103973;29;20364;-79
2023/02/15 10:48:27;;;;;;;17.30;11.73;;;;;;;9.54;50.80;101502.44;10127848;29;20059;-78
2023/02/15 10:53:46;;;;;;;21.45;11.88;;;;;;;9.52;50.50;101491.81;10131276;29;20179;-79
2023/02/15 10:59:04;;;;;;;18.40;12.07;;;;;;;9.74;50.50;101480.66;10126514;29;20179;-78
2023/02/15 11:04:34;;;;;;;16.92;11.32;;;;;;;10.08;49.12;101467.91;10111035;29;20150;-79
2023/02/15 11:09:41;;;;;;;17.55;11.43;;;;;;;11.28;46.94;101467.34;10130127;29;20720;-79
2023/02/15 11:14:49;;;;;;;18.05;11.20;;;;;;;11.78;45.15;101477.47;10128875;29;20092;-79
2023/02/15 11:20:02;;;;;;;20.88;12.50;;;;;;;13.00;43.46;101462.44;10131186;29;20056;-79
2023/02/15 11:25:18;;;;;;;17.98;11.20;;;;;;;13.93;42.60;101460.75;10129528;29;20060;-79
2023/02/15 11:30:22;;;;;;;18.48;12.63;;;;;;;13.35;42.72;101451.69;10111208;29;20063;-78
2023/02/15 11:35:32;;;;;;;19.52;11.48;;;;;;;13.82;42.65;101451.75;10138921;29;20070;-77
2023/02/15 11:40:39;;;;;;;18.65;11.73;;;;;;;13.83;41.74;101448.94;10129440;29;20055;-78
2023/02/15 11:45:45;;;;;;;18.90;12.27;;;;;;;14.37;41.09;101453.66;10129256;29;20055;-79
2023/02/15 11:50:49;;;;;;;20.23;12.35;;;;;;;14.62;40.25;101454.41;10160441;29;21262;-79
2023/02/15 11:55:53;;;;;;;19.08;11.82;;;;;;;14.58;40.18;101450.22;10135545;29;20171;-78
2023/02/15 12:01:02;;;;;;;17.52;11.75;;;;;;;14.92;40.11;101437.50;10132647;29;20056;-80
2023/02/15 12:06:14;;;;;;;17.95;11.05;;;;;;;15.37;39.42;101423.84;10130306;29;20083;-79
2023/02/15 12:11:22;;;;;;;15.85;11.38;;;;;;;15.52;39.19;101418.94;10119540;29;20056;-79
2023/02/15 12:16:27;;;;;;;19.65;11.60;;;;;;;15.77;39.14;101420.41;10116302;29;20064;-77
2023/02/15 12:21:34;;;;;;;16.85;11.98;;;;;;;15.74;39.67;101414.38;10140819;29;20124;-79
2023/02/15 12:26:38;;;;;;;18.80;12.35;;;;;;;15.47;39.39;101407.69;10125490;29;20058;-77
2023/02/15 12:31:44;;;;;;;16.13;11.57;;;;;;;14.77;40.99;101398.19;10118224;29;20102;-79
2023/02/15 12:36:54;;;;;;;19.10;11.75;;;;;;;14.14;42.37;101400.59;10126609;29;20052;-79
2023/02/15 12:42:03;;;;;;;19.00;12.75;;;;;;;13.45;43.56;101393.38;10118848;29;20601;-78
2023/02/15 12:47:18;;;;;;;20.67;12.18;;;;;;;13.12;44.56;101386.00;10132428;29;20131;-78
2023/02/15 12:52:26;;;;;;;20.50;11.55;;;;;;;13.35;43.97;101377.97;10124309;29;20044;-80
2023/02/15 12:57:31;;;;;;;17.85;11.02;;;;;;;12.99;44.88;101364.50;10124380;29;20051;-78
2023/02/15 13:02:42;;;;;;;17.17;11.90;;;;;;;12.45;46.77;101359.56;10135418;29;20056;-80
2023/02/15 13:07:52;;;;;;;19.65;12.40;;;;;;;13.11;45.64;101351.94;10132436;29;20066;-79
2023/02/15 13:12:57;;;;;;;16.67;11.10;;;;;;;13.46;45.01;101345.66;10122407;29;20056;-77
2023/02/15 13:18:02;;;;;;;19.45;11.68;;;;;;;13.74;44.46;101343.47;10112861;29;20055;-77
2023/02/15 13:23:23;;;;;;;16.92;11.88;;;;;;;14.21;43.55;101342.38;10113597;29;20048;-78
2023/02/15 13:28:35;;;;;;;19.58;12.35;;;;;;;14.63;41.79;101336.28;10115325;29;20472;-80
2023/02/15 13:33:39;;;;;;;17.10;11.27;;;;;;;14.16;43.37;101323.81;10123201;29;20294;-78
2023/02/15 13:38:50;;;;;;;20.25;11.95;;;;;;;14.19;43.68;101328.13;10115665;29;20059;-79
2023/02/15 13:44:05;;;;;;;16.40;10.93;;;;;;;14.07;43.47;101321.00;10101606;29;20075;-78
2023/02/15 13:49:22;;;;;;;17.10;11.95;;;;;;;13.75;43.90;101313.66;10108744;29;20081;-77
2023/02/15 13:54:47;;;;;;;18.02;11.85;;;;;;;13.96;43.98;101308.38;10127491;29;20140;-78
2023/02/15 14:00:03;;;;;;;18.98;11.80;;;;;;;13.79;44.20;101309.72;10113797;29;20125;-76
2023/02/15 14:05:47;;;;;;;20.73;14.13;;;;;;;13.84;44.68;101295.84;10102369;29;20080;-79
2023/02/15 14:11:02;;;;;;;16.17;11.60;;;;;;;13.57;44.33;101297.06;10104063;29;20504;-79
2023/02/15 14:16:11;;;;;;;16.50;11.93;;;;;;;13.56;44.88;101299.91;10121802;29;20052;-77
2023/02/15 14:21:18;;;;;;;18.15;11.68;;;;;;;13.36;45.84;101285.28;10103512;29;20063;-79
2023/02/15 14:26:34;;;;;;;18.77;12.60;;;;;;;13.32;45.50;101268.44;10140025;29;20056;-79
2023/02/15 14:31:42;;;;;;;18.13;11.23;;;;;;;13.55;45.93;101269.38;10150511;29;20052;-78
2023/02/15 14:36:45;;;;;;;17.95;11.48;;;;;;;13.77;45.12;101270.31;10124637;29;20701;-80
2023/02/15 14:41:54;;;;;;;17.75;11.65;;;;;;;13.82;45.31;101269.00;10131259;29;20048;-78
2023/02/15 14:47:02;;;;;;;17.17;11.65;;;;;;;13.69;45.41;101281.75;10135084;29;20048;-79
2023/02/15 14:52:08;;;;;;;17.55;11.63;;;;;;;13.80;45.39;101272.81;10113142;29;20104;-79
2023/02/15 14:57:27;;;;;;;17.65;12.07;;;;;;;13.07;46.17;101274.91;10126510;29;20057;-79
2023/02/15 15:02:43;;;;;;;16.33;11.07;;;;;;;12.69;47.45;101267.91;10130732;29;20075;-78
2023/02/15 15:07:48;;;;;;;17.45;11.55;;;;;;;12.27;48.47;101266.59;10129553;29;20058;-78
2023/02/15 15:12:54;;;;;;;21.52;12.43;;;;;;;11.97;49.19;101269.72;10142608;29;20052;-79
2023/02/15 15:18:01;;;;;;;21.77;12.18;;;;;;;11.96;50.05;101258.09;10129816;29;21667;-79
2023/02/15 15:23:41;;;;;;;18.30;11.35;;;;;;;11.82;50.41;101259.09;10129560;29;20136;-78
2023/02/15 15:28:59;;;;;;;18.70;11.40;;;;;;;12.58;49.13;101255.25;10128080;29;20052;-78
2023/02/15 15:34:43;;;;;;;17.77;11.10;;;;;;;12.67;48.84;101247.44;10140563;29;20589;-76
2023/02/15 15:40:30;;;;;;;19.08;12.15;;;;;;;12.06;49.47;101256.41;10127951;29;20062;-77
2023/02/15 15:45:54;;;;;;;18.67;11.73;;;;;;;11.20;51.59;101248.28;10135242;29;20053;-79
2023/02/15 15:51:02;;;;;;;18.67;11.40;;;;;;;10.52;53.12;101249.31;10148678;29;20052;-79
2023/02/15 15:56:10;;;;;;;17.80;11.60;;;;;;;10.03;54.67;101240.00;10142095;29;20069;-80
2023/02/15 16:01:16;;;;;;;18.45;12.55;;;;;;;9.77;55.36;101236.28;10130591;29;20047;-79
2023/02/15 16:06:30;;;;;;;19.55;12.73;;;;;;;9.53;55.98;101233.34;10164399;29;20047;-80
2023/02/15 16:11:33;;;;;;;18.58;12.13;;;;;;;9.16;56.79;101238.34;10155903;29;20123;-79
2023/02/15 16:16:37;;;;;;;18.38;11.80;;;;;;;8.86;57.71;101234.81;10164018;29;20066;-79
2023/02/15 16:21:40;;;;;;;17.92;12.07;;;;;;;8.52;58.45;101237.69;10140911;29;20131;-79
2023/02/15 16:27:04;;;;;;;21.65;11.63;;;;;;;8.31;58.96;101244.28;10135693;29;20055;-79
2023/02/15 16:32:21;;;;;;;18.77;11.60;;;;;;;8.16;59.25;101252.25;10141225;29;20044;-79
2023/02/15 16:37:27;;;;;;;19.35;12.23;;;;;;;8.02;59.84;101245.97;10109741;29;20056;-79
2023/02/15 16:42:30;;;;;;;21.63;13.30;;;;;;;7.68;60.78;101235.34;10117833;29;20123;-79
2023/02/15 16:47:40;;;;;;;18.80;12.52;;;;;;;7.44;61.73;101245.56;10143017;29;20063;-79
2023/02/15 16:52:44;;;;;;;22.08;13.95;;;;;;;7.44;61.59;101242.03;10150833;29;20134;-77
2023/02/15 16:57:47;;;;;;;23.30;13.60;;;;;;;7.28;62.09;101237.50;10158864;29;20059;-78
2023/02/15 17:03:00;;;;;;;23.10;13.25;;;;;;;7.04;62.48;101245.00;10160421;29;20055;-79
2023/02/15 17:08:15;;;;;;;20.75;11.95;;;;;;;7.06;62.58;101236.94;10155505;29;20066;-80
2023/02/15 17:13:18;;;;;;;21.27;13.82;;;;;;;6.93;62.87;101230.50;10152477;29;20051;-78
2023/02/15 17:18:24;;;;;;;22.58;13.73;;;;;;;6.92;62.81;101248.34;10155944;29;20083;-79
2023/02/15 17:23:30;;;;;;;21.42;12.82;;;;;;;6.84;62.58;101261.19;10150284;29;20050;-79
2023/02/15 17:28:33;;;;;;;23.70;13.45;;;;;;;6.77;63.16;101257.94;10161418;29;20131;-79
2023/02/15 17:33:39;;;;;;;21.92;14.05;;;;;;;6.70;63.42;101255.69;10151902;29;20048;-78
2023/02/15 17:39:01;;;;;;;22.88;13.93;;;;;;;6.62;63.27;101258.75;10157602;29;20511;-79
2023/02/15 17:44:08;;;;;;;22.58;13.20;;;;;;;6.47;63.70;101267.53;10114766;29;20053;-77
2023/02/15 17:49:23;;;;;;;24.05;13.23;;;;;;;6.44;63.70;101255.19;10138117;29;20423;-77
2023/02/15 18:15:56;;;;;;;24.35;13.75;;;;;;;5.90;64.88;101243.63;10155787;29;20052;-77
2023/02/15 18:21:01;;;;;;;24.48;14.52;;;;;;;5.84;64.83;101244.78;10153512;29;20060;-78
2023/02/15 18:26:05;;;;;;;28.80;15.98;;;;;;;5.70;65.04;101247.22;10153177;29;20059;-78
2023/02/15 18:31:08;;;;;;;27.65;15.02;;;;;;;5.76;64.69;101254.06;10146562;29;20087;-77
2023/02/15 18:36:17;;;;;;;28.13;15.77;;;;;;;5.75;64.64;101249.69;10151736;29;20048;-78
2023/02/15 18:41:22;;;;;;;24.83;14.27;;;;;;;5.70;64.70;101240.13;10144504;29;20048;-76
2023/02/15 18:46:27;;;;;;;25.85;15.15;;;;;;;5.53;64.74;101234.69;10153926;29;20048;-78
2023/02/15 18:51:34;;;;;;;29.33;16.48;;;;;;;5.45;65.22;101251.03;10149090;29;20052;-77
2023/02/15 18:56:37;;;;;;;28.63;16.08;;;;;;;5.42;65.23;101234.31;10143034;29;20084;-77
2023/02/15 19:01:41;;;;;;;28.00;15.57;;;;;;;5.21;65.50;101242.38;10145320;29;20048;-76
2023/02/15 19:06:47;;;;;;;28.25;16.45;;;;;;;5.01;66.75;101245.91;10149587;29;20055;-79
2023/02/15 19:11:52;;;;;;;28.63;16.42;;;;;;;4.95;67.08;101243.47;10150937;29;20056;-77
2023/02/15 19:16:56;;;;;;;33.45;17.48;;;;;;;4.80;67.56;101244.13;10134232;29;20136;-78
2023/02/15 19:22:02;;;;;;;29.15;14.10;;;;;;;4.77;67.31;101229.19;10112911;29;20071;-77
2023/02/15 19:27:06;;;;;;;29.45;15.85;;;;;;;4.67;67.64;101234.97;10106319;29;20044;-77
2023/02/15 19:32:11;;;;;;;32.35;16.95;;;;;;;4.59;68.05;101236.16;10116039;29;21226;-78
2023/02/15 19:37:25;;;;;;;30.60;17.05;;;;;;;4.61;67.78;101252.94;10127477;29;20286;-76
2023/02/15 19:42:30;;;;;;;34.15;18.55;;;;;;;4.64;67.75;101254.59;10103439;29;20056;-76
2023/02/15 19:47:33;;;;;;;33.58;18.52;;;;;;;4.57;67.58;101256.63;10115021;29;21262;-77
2023/02/15 19:52:37;;;;;;;35.95;18.15;;;;;;;4.49;67.66;101253.44;10120992;29;20493;-77
2023/02/15 19:57:40;;;;;;;31.55;15.73;;;;;;;4.37;67.95;101248.63;10119138;29;20082;-77
2023/02/15 20:02:43;;;;;;;36.65;18.75;;;;;;;4.18;68.51;101265.34;10110768;29;20072;-76
2023/02/15 20:07:49;;;;;;;33.92;17.73;;;;;;;4.21;68.40;101268.81;10132577;29;20083;-77
2023/02/15 20:12:53;;;;;;;34.72;17.42;;;;;;;4.25;68.10;101270.41;10126035;29;20058;-78
2023/02/15 20:17:58;;;;;;;37.17;20.17;;;;;;;4.27;68.00;101276.53;10123205;29;20067;-78
2023/02/15 20:23:02;;;;;;;41.92;22.75;;;;;;;4.11;68.07;101282.47;10133848;29;20052;-77
2023/02/15 20:28:05;;;;;;;41.13;20.65;;;;;;;4.04;68.34;101288.09;10147265;29;20056;-80
2023/02/15 20:33:08;;;;;;;36.17;18.92;;;;;;;4.03;68.21;101279.25;10155217;29;20105;-77
2023/02/15 20:38:19;;;;;;;37.70;19.83;;;;;;;3.79;68.95;101280.22;10163589;29;20059;-79
2023/02/15 20:43:22;;;;;;;41.33;18.52;;;;;;;3.68;68.97;101277.97;10164426;29;20119;-79
2023/02/15 20:48:25;;;;;;;39.95;19.27;;;;;;;3.63;69.22;101280.78;10144806;29;21179;-77
2023/02/15 20:53:29;;;;;;;39.58;18.35;;;;;;;3.59;69.03;101263.22;10157465;29;20184;-79
2023/02/15 20:58:32;;;;;;;40.33;19.63;;;;;;;3.42;69.62;101274.47;10149566;29;20119;-77
2023/02/15 21:03:35;;;;;;;42.25;19.60;;;;;;;3.53;69.10;101265.25;10155646;29;20060;-78
2023/02/15 21:08:39;;;;;;;41.08;20.35;;;;;;;3.44;69.33;101269.13;10154501;29;20055;-78
2023/02/15 21:13:42;;;;;;;41.45;21.08;;;;;;;3.26;69.58;101274.19;10153036;29;20043;-78
2023/02/15 21:18:45;;;;;;;34.53;18.20;;;;;;;3.25;69.49;101284.88;10152135;29;20045;-78
2023/02/15 21:23:51;;;;;;;38.45;19.35;;;;;;;3.26;69.09;101283.94;10151209;29;20052;-77
2023/02/15 21:28:55;;;;;;;42.03;17.77;;;;;;;2.93;69.99;101283.34;10123690;29;20056;-78
2023/02/15 21:33:58;;;;;;;38.63;18.80;;;;;;;3.06;69.67;101290.81;10140883;29;20104;-78
2023/02/15 21:39:03;;;;;;;41.88;20.42;;;;;;;2.93;69.91;101273.59;10137772;29;20059;-79
2023/02/15 21:55:15;;;;;;;36.80;18.08;;;;;;;2.96;69.37;101297.41;10148757;29;20064;-77
2023/02/15 22:00:20;;;;;;;36.08;18.00;;;;;;;2.97;69.29;101300.91;10146836;29;20530;-77
2023/02/15 22:05:26;;;;;;;37.95;19.45;;;;;;;2.88;69.54;101299.44;10166809;29;20036;-78
2023/02/15 22:10:32;;;;;;;36.85;17.67;;;;;;;2.92;69.31;101295.75;10183506;29;20055;-78
2023/02/15 22:15:36;;;;;;;39.15;18.50;;;;;;;2.87;69.30;101291.53;10175043;29;20040;-78
2023/02/15 22:20:39;;;;;;;40.25;19.98;;;;;;;2.87;69.34;101288.88;10200327;28;20047;-78
2023/02/15 22:25:46;;;;;;;34.67;18.55;;;;;;;2.79;69.29;101292.66;10200064;28;20036;-78
2023/02/15 22:30:48;;;;;;;36.00;18.45;;;;;;;2.68;69.64;101283.31;10176403;29;20045;-78
2023/02/15 22:35:52;;;;;;;36.97;18.20;;;;;;;2.56;69.93;101287.25;10170655;29;20075;-79
2023/02/15 22:41:02;;;;;;;36.55;18.08;;;;;;;2.54;70.09;101299.72;10171560;29;20404;-79
2023/02/15 22:46:08;;;;;;;35.53;16.85;;;;;;;2.52;70.11;101291.75;10169342;29;20051;-78
2023/02/15 22:51:12;;;;;;;44.83;20.08;;;;;;;2.45;70.53;101290.22;10186517;29;20056;-79
2023/02/15 22:56:21;;;;;;;39.75;19.20;;;;;;;2.46;70.46;101288.44;10177651;29;20063;-78
2023/02/15 23:01:30;;;;;;;35.10;17.20;;;;;;;2.41;70.28;101291.22;10156309;29;20163;-78
2023/02/15 23:06:34;;;;;;;37.92;18.55;;;;;;;2.28;70.55;101290.78;10138913;29;20554;-78
2023/02/15 23:11:38;;;;;;;41.42;21.25;;;;;;;2.27;70.67;101288.16;10154961;29;20060;-78
2023/02/15 23:16:41;;;;;;;42.28;19.05;;;;;;;2.26;70.79;101287.31;10163712;29;20048;-77
2023/02/15 23:21:46;;;;;;;36.25;19.05;;;;;;;2.18;71.05;101271.66;10164492;29;20048;-77
2023/02/15 23:26:50;;;;;;;37.15;17.55;;;;;;;2.13;70.77;101276.22;10162969;29;20056;-78
2023/02/15 23:31:53;;;;;;;33.60;17.50;;;;;;;2.11;70.69;101278.06;10165645;29;20051;-79
2023/02/15 23:36:56;;;;;;;36.05;17.95;;;;;;;2.13;70.88;101284.16;10164309;29;20041;-77
2023/02/15 23:42:03;;;;;;;34.95;17.77;;;;;;;2.18;70.62;101276.94;10165896;29;20083;-79
2023/02/15 23:47:06;;;;;;;33.60;17.55;;;;;;;2.17;70.49;101287.63;10162677;29;20108;-79
2023/02/15 23:52:11;;;;;;;37.35;18.63;;;;;;;2.19;70.54;101288.41;10165451;29;20563;-79
2023/02/15 23:57:15;;;;;;;37.03;17.67;;;;;;;2.14;70.53;101279.75;10162910;29;20049;-79
